sensor_id;sensor_type;location;lat;lon;timestamp;temperature;humidity
70170;DHT22;57543;45.442;9.212;2023-02-28T00:01:59;6.95;58.34
70170;DHT22;57543;45.442;9.212;2023-02-28T00:05:04;6.95;57.20
70170;DHT22;57543;45.442;9.212;2023-02-28T00:08:08;6.93;58.02
70170;DHT22;57543;45.442;9.212;2023-02-28T00:11:14;6.93;57.84
70170;DHT22;57543;45.442;9.212;2023-02-28T00:14:17;6.88;56.97
70170;DHT22;57543;45.442;9.212;2023-02-28T00:17:21;6.82;57.08
70170;DHT22;57543;45.442;9.212;2023-02-28T00:20:25;6.92;57.02
70170;DHT22;57543;45.442;9.212;2023-02-28T00:23:30;6.89;56.63
70170;DHT22;57543;45.442;9.212;2023-02-28T00:26:34;6.82;56.68
70170;DHT22;57543;45.442;9.212;2023-02-28T00:29:38;6.76;56.35
70170;DHT22;57543;45.442;9.212;2023-02-28T00:32:42;6.73;55.91
70170;DHT22;57543;45.442;9.212;2023-02-28T00:35:46;6.67;56.66
70170;DHT22;57543;45.442;9.212;2023-02-28T00:38:50;6.64;56.54
70170;DHT22;57543;45.442;9.212;2023-02-28T00:41:54;6.79;56.74
70170;DHT22;57543;45.442;9.212;2023-02-28T00:44:58;6.79;56.83
70170;DHT22;57543;45.442;9.212;2023-02-28T00:48:02;6.78;55.91
70170;DHT22;57543;45.442;9.212;2023-02-28T00:51:05;6.79;55.52
70170;DHT22;57543;45.442;9.212;2023-02-28T00:54:09;6.85;54.93
70170;DHT22;57543;45.442;9.212;2023-02-28T00:57:13;6.81;55.26
70170;DHT22;57543;45.442;9.212;2023-02-28T01:00:17;6.81;55.96
70170;DHT22;57543;45.442;9.212;2023-02-28T01:03:22;6.75;55.40
70170;DHT22;57543;45.442;9.212;2023-02-28T01:06:26;6.79;55.28
70170;DHT22;57543;45.442;9.212;2023-02-28T01:09:29;6.78;55.91
70170;DHT22;57543;45.442;9.212;2023-02-28T01:12:33;6.78;55.86
70170;DHT22;57543;45.442;9.212;2023-02-28T01:15:38;6.79;56.03
70170;DHT22;57543;45.442;9.212;2023-02-28T01:18:44;6.82;56.78
70170;DHT22;57543;45.442;9.212;2023-02-28T01:21:47;6.81;56.48
70170;DHT22;57543;45.442;9.212;2023-02-28T01:24:50;6.73;56.76
70170;DHT22;57543;45.442;9.212;2023-02-28T01:27:54;6.76;56.83
70170;DHT22;57543;45.442;9.212;2023-02-28T01:30:58;6.71;55.30
70170;DHT22;57543;45.442;9.212;2023-02-28T01:34:02;6.64;55.98
70170;DHT22;57543;45.442;9.212;2023-02-28T01:37:06;6.64;56.13
70170;DHT22;57543;45.442;9.212;2023-02-28T01:40:11;6.61;56.12
70170;DHT22;57543;45.442;9.212;2023-02-28T01:46:49;6.34;57.58
70170;DHT22;57543;45.442;9.212;2023-02-28T01:49:52;6.28;57.69
70170;DHT22;57543;45.442;9.212;2023-02-28T01:52:59;6.17;57.60
70170;DHT22;57543;45.442;9.212;2023-02-28T01:56:06;6.06;57.81
70170;DHT22;57543;45.442;9.212;2023-02-28T01:59:12;6.14;57.19
70170;DHT22;57543;45.442;9.212;2023-02-28T02:02:18;6.05;57.67
70170;DHT22;57543;45.442;9.212;2023-02-28T02:05:26;6.14;57.49
70170;DHT22;57543;45.442;9.212;2023-02-28T02:08:30;6.20;57.44
70170;DHT22;57543;45.442;9.212;2023-02-28T02:11:34;6.23;57.46
70170;DHT22;57543;45.442;9.212;2023-02-28T02:18:30;6.24;57.08
70170;DHT22;57543;45.442;9.212;2023-02-28T02:25:10;6.23;57.39
70170;DHT22;57543;45.442;9.212;2023-02-28T02:35:34;5.90;59.49
70170;DHT22;57543;45.442;9.212;2023-02-28T02:38:52;6.03;59.91
70170;DHT22;57543;45.442;9.212;2023-02-28T02:41:59;6.10;59.91
70170;DHT22;57543;45.442;9.212;2023-02-28T02:45:12;6.10;59.75
70170;DHT22;57543;45.442;9.212;2023-02-28T02:48:19;5.99;59.11
70170;DHT22;57543;45.442;9.212;2023-02-28T02:51:27;5.85;59.39
70170;DHT22;57543;45.442;9.212;2023-02-28T02:54:37;5.98;59.04
70170;DHT22;57543;45.442;9.212;2023-02-28T02:58:00;5.89;59.51
70170;DHT22;57543;45.442;9.212;2023-02-28T03:01:06;5.88;59.57
70170;DHT22;57543;45.442;9.212;2023-02-28T03:04:17;5.92;59.46
70170;DHT22;57543;45.442;9.212;2023-02-28T03:07:21;5.78;59.56
70170;DHT22;57543;45.442;9.212;2023-02-28T03:10:38;5.62;59.78
70170;DHT22;57543;45.442;9.212;2023-02-28T03:14:02;5.61;60.18
70170;DHT22;57543;45.442;9.212;2023-02-28T03:20:54;5.78;60.03
70170;DHT22;57543;45.442;9.212;2023-02-28T03:24:08;5.81;60.48
70170;DHT22;57543;45.442;9.212;2023-02-28T03:30:24;5.95;59.68
70170;DHT22;57543;45.442;9.212;2023-02-28T03:33:37;6.06;59.38
70170;DHT22;57543;45.442;9.212;2023-02-28T03:36:48;6.13;59.35
70170;DHT22;57543;45.442;9.212;2023-02-28T03:40:06;6.27;59.22
70170;DHT22;57543;45.442;9.212;2023-02-28T03:43:16;6.31;59.34
70170;DHT22;57543;45.442;9.212;2023-02-28T03:46:24;6.37;59.25
70170;DHT22;57543;45.442;9.212;2023-02-28T03:49:36;6.41;59.03
70170;DHT22;57543;45.442;9.212;2023-02-28T03:52:47;6.48;59.06
70170;DHT22;57543;45.442;9.212;2023-02-28T03:55:57;6.52;59.12
70170;DHT22;57543;45.442;9.212;2023-02-28T03:59:07;6.54;59.24
70170;DHT22;57543;45.442;9.212;2023-02-28T04:02:13;6.54;59.19
70170;DHT22;57543;45.442;9.212;2023-02-28T04:05:17;6.54;59.00
70170;DHT22;57543;45.442;9.212;2023-02-28T04:08:21;6.56;58.93
70170;DHT22;57543;45.442;9.212;2023-02-28T04:11:37;6.59;58.65
70170;DHT22;57543;45.442;9.212;2023-02-28T04:14:43;6.55;58.39
70170;DHT22;57543;45.442;9.212;2023-02-28T04:17:47;6.56;58.44
70170;DHT22;57543;45.442;9.212;2023-02-28T04:20:50;6.58;58.62
70170;DHT22;57543;45.442;9.212;2023-02-28T04:23:55;6.55;58.50
70170;DHT22;57543;45.442;9.212;2023-02-28T04:26:59;6.61;58.74
70170;DHT22;57543;45.442;9.212;2023-02-28T04:30:03;6.64;58.51
70170;DHT22;57543;45.442;9.212;2023-02-28T04:33:06;6.59;58.72
70170;DHT22;57543;45.442;9.212;2023-02-28T04:36:10;6.59;58.66
70170;DHT22;57543;45.442;9.212;2023-02-28T04:39:15;6.56;58.53
70170;DHT22;57543;45.442;9.212;2023-02-28T04:42:19;6.51;58.53
70170;DHT22;57543;45.442;9.212;2023-02-28T04:45:22;6.56;58.56
70170;DHT22;57543;45.442;9.212;2023-02-28T04:48:31;6.56;58.65
70170;DHT22;57543;45.442;9.212;2023-02-28T04:51:35;6.59;58.56
70170;DHT22;57543;45.442;9.212;2023-02-28T04:54:39;6.62;58.24
70170;DHT22;57543;45.442;9.212;2023-02-28T04:57:42;6.61;58.12
70170;DHT22;57543;45.442;9.212;2023-02-28T05:00:45;6.59;58.09
70170;DHT22;57543;45.442;9.212;2023-02-28T05:03:50;6.59;57.69
70170;DHT22;57543;45.442;9.212;2023-02-28T05:06:54;6.56;57.79
70170;DHT22;57543;45.442;9.212;2023-02-28T05:09:58;6.55;57.69
70170;DHT22;57543;45.442;9.212;2023-02-28T05:13:02;6.58;57.89
70170;DHT22;57543;45.442;9.212;2023-02-28T05:16:06;6.62;57.70
70170;DHT22;57543;45.442;9.212;2023-02-28T05:19:09;6.62;57.68
70170;DHT22;57543;45.442;9.212;2023-02-28T05:22:15;6.58;57.66
70170;DHT22;57543;45.442;9.212;2023-02-28T05:25:21;6.42;57.71
70170;DHT22;57543;45.442;9.212;2023-02-28T05:28:25;6.49;57.81
70170;DHT22;57543;45.442;9.212;2023-02-28T05:31:29;6.51;57.90
70170;DHT22;57543;45.442;9.212;2023-02-28T05:34:33;6.51;57.98
70170;DHT22;57543;45.442;9.212;2023-02-28T05:37:38;6.52;58.12
70170;DHT22;57543;45.442;9.212;2023-02-28T05:40:41;6.48;57.87
70170;DHT22;57543;45.442;9.212;2023-02-28T05:43:45;6.49;57.81
70170;DHT22;57543;45.442;9.212;2023-02-28T05:46:48;6.54;57.94
70170;DHT22;57543;45.442;9.212;2023-02-28T05:49:53;6.54;57.88
70170;DHT22;57543;45.442;9.212;2023-02-28T05:52:56;6.55;57.74
70170;DHT22;57543;45.442;9.212;2023-02-28T05:56:00;6.55;57.69
70170;DHT22;57543;45.442;9.212;2023-02-28T05:59:04;6.44;57.73
70170;DHT22;57543;45.442;9.212;2023-02-28T06:02:13;6.28;58.17
70170;DHT22;57543;45.442;9.212;2023-02-28T06:05:17;6.28;58.52
70170;DHT22;57543;45.442;9.212;2023-02-28T06:08:21;6.20;58.34
70170;DHT22;57543;45.442;9.212;2023-02-28T06:11:25;6.18;58.09
70170;DHT22;57543;45.442;9.212;2023-02-28T06:14:31;6.21;58.39
70170;DHT22;57543;45.442;9.212;2023-02-28T06:17:35;6.27;58.02
70170;DHT22;57543;45.442;9.212;2023-02-28T06:20:38;6.34;57.96
70170;DHT22;57543;45.442;9.212;2023-02-28T06:23:42;6.41;58.07
70170;DHT22;57543;45.442;9.212;2023-02-28T06:26:46;6.33;57.85
70170;DHT22;57543;45.442;9.212;2023-02-28T06:29:53;6.42;58.11
70170;DHT22;57543;45.442;9.212;2023-02-28T06:32:57;6.41;58.21
70170;DHT22;57543;45.442;9.212;2023-02-28T06:36:00;6.26;57.89
70170;DHT22;57543;45.442;9.212;2023-02-28T06:39:06;6.24;58.08
70170;DHT22;57543;45.442;9.212;2023-02-28T06:42:10;6.24;58.05
70170;DHT22;57543;45.442;9.212;2023-02-28T06:45:13;6.27;58.28
70170;DHT22;57543;45.442;9.212;2023-02-28T06:48:17;6.21;58.51
70170;DHT22;57543;45.442;9.212;2023-02-28T06:51:21;6.20;58.39
70170;DHT22;57543;45.442;9.212;2023-02-28T06:54:26;6.28;58.36
70170;DHT22;57543;45.442;9.212;2023-02-28T06:57:32;6.33;58.41
70170;DHT22;57543;45.442;9.212;2023-02-28T07:00:35;6.31;58.57
70170;DHT22;57543;45.442;9.212;2023-02-28T07:03:39;6.35;58.22
70170;DHT22;57543;45.442;9.212;2023-02-28T07:06:42;6.38;58.32
70170;DHT22;57543;45.442;9.212;2023-02-28T07:09:46;6.35;58.05
70170;DHT22;57543;45.442;9.212;2023-02-28T07:12:50;6.38;58.58
70170;DHT22;57543;45.442;9.212;2023-02-28T07:15:55;6.52;58.50
70170;DHT22;57543;45.442;9.212;2023-02-28T07:19:02;6.58;58.24
70170;DHT22;57543;45.442;9.212;2023-02-28T07:22:06;6.61;58.32
70170;DHT22;57543;45.442;9.212;2023-02-28T07:25:10;6.56;57.90
70170;DHT22;57543;45.442;9.212;2023-02-28T07:28:14;6.67;57.78
70170;DHT22;57543;45.442;9.212;2023-02-28T07:31:18;6.71;56.81
70170;DHT22;57543;45.442;9.212;2023-02-28T07:34:22;6.71;57.26
70170;DHT22;57543;45.442;9.212;2023-02-28T07:37:26;6.79;57.50
70170;DHT22;57543;45.442;9.212;2023-02-28T07:40:30;6.86;57.59
70170;DHT22;57543;45.442;9.212;2023-02-28T07:43:34;6.96;57.15
70170;DHT22;57543;45.442;9.212;2023-02-28T07:46:37;6.97;56.93
70170;DHT22;57543;45.442;9.212;2023-02-28T07:49:42;7.04;56.80
70170;DHT22;57543;45.442;9.212;2023-02-28T07:52:45;7.06;56.27
70170;DHT22;57543;45.442;9.212;2023-02-28T07:55:49;7.04;56.22
70170;DHT22;57543;45.442;9.212;2023-02-28T07:58:52;7.10;55.85
70170;DHT22;57543;45.442;9.212;2023-02-28T08:01:57;7.10;55.73
70170;DHT22;57543;45.442;9.212;2023-02-28T08:05:02;7.10;55.42
70170;DHT22;57543;45.442;9.212;2023-02-28T08:08:06;7.09;55.23
70170;DHT22;57543;45.442;9.212;2023-02-28T08:11:10;6.95;55.63
70170;DHT22;57543;45.442;9.212;2023-02-28T08:14:14;6.93;55.72
70170;DHT22;57543;45.442;9.212;2023-02-28T08:17:17;7.03;55.75
70170;DHT22;57543;45.442;9.212;2023-02-28T08:20:21;7.00;55.58
70170;DHT22;57543;45.442;9.212;2023-02-28T08:23:25;7.06;54.76
70170;DHT22;57543;45.442;9.212;2023-02-28T08:26:29;7.10;55.11
70170;DHT22;57543;45.442;9.212;2023-02-28T08:29:32;7.10;54.26
70170;DHT22;57543;45.442;9.212;2023-02-28T08:32:36;7.11;54.82
70170;DHT22;57543;45.442;9.212;2023-02-28T08:35:41;7.27;55.01
70170;DHT22;57543;45.442;9.212;2023-02-28T08:38:45;7.27;54.48
70170;DHT22;57543;45.442;9.212;2023-02-28T08:41:49;7.27;54.02
70170;DHT22;57543;45.442;9.212;2023-02-28T08:44:52;7.32;53.62
70170;DHT22;57543;45.442;9.212;2023-02-28T08:47:56;7.37;53.68
70170;DHT22;57543;45.442;9.212;2023-02-28T08:51:03;7.37;53.99
70170;DHT22;57543;45.442;9.212;2023-02-28T08:54:08;7.38;54.23
70170;DHT22;57543;45.442;9.212;2023-02-28T08:57:11;7.45;54.48
70170;DHT22;57543;45.442;9.212;2023-02-28T09:00:15;7.41;54.15
70170;DHT22;57543;45.442;9.212;2023-02-28T09:03:19;7.45;53.46
70170;DHT22;57543;45.442;9.212;2023-02-28T09:06:26;7.43;53.16
70170;DHT22;57543;45.442;9.212;2023-02-28T09:09:30;7.43;52.76
70170;DHT22;57543;45.442;9.212;2023-02-28T09:12:34;7.30;51.64
70170;DHT22;57543;45.442;9.212;2023-02-28T09:15:40;7.37;52.03
70170;DHT22;57543;45.442;9.212;2023-02-28T09:18:44;7.40;52.44
70170;DHT22;57543;45.442;9.212;2023-02-28T09:21:47;7.48;52.32
70170;DHT22;57543;45.442;9.212;2023-02-28T09:24:51;7.35;51.87
70170;DHT22;57543;45.442;9.212;2023-02-28T09:27:55;7.44;52.54
70170;DHT22;57543;45.442;9.212;2023-02-28T09:30:58;7.48;51.91
70170;DHT22;57543;45.442;9.212;2023-02-28T09:34:07;7.69;58.90
70170;DHT22;57543;45.442;9.212;2023-02-28T09:37:11;7.68;52.74
70170;DHT22;57543;45.442;9.212;2023-02-28T09:40:16;7.62;52.19
70170;DHT22;57543;45.442;9.212;2023-02-28T09:43:25;7.66;51.56
70170;DHT22;57543;45.442;9.212;2023-02-28T09:46:41;7.58;51.80
70170;DHT22;57543;45.442;9.212;2023-02-28T09:49:47;7.65;53.03
70170;DHT22;57543;45.442;9.212;2023-02-28T09:52:52;7.78;52.86
70170;DHT22;57543;45.442;9.212;2023-02-28T09:56:21;7.85;51.63
70170;DHT22;57543;45.442;9.212;2023-02-28T09:59:44;7.87;51.79
70170;DHT22;57543;45.442;9.212;2023-02-28T10:03:15;7.87;51.57
70170;DHT22;57543;45.442;9.212;2023-02-28T10:06:27;8.16;51.62
70170;DHT22;57543;45.442;9.212;2023-02-28T10:09:32;8.28;50.78
70170;DHT22;57543;45.442;9.212;2023-02-28T10:12:45;8.48;50.58
70170;DHT22;57543;45.442;9.212;2023-02-28T10:15:54;8.58;50.57
70170;DHT22;57543;45.442;9.212;2023-02-28T10:19:33;8.86;50.99
70170;DHT22;57543;45.442;9.212;2023-02-28T10:22:54;9.04;49.75
70170;DHT22;57543;45.442;9.212;2023-02-28T10:26:05;9.30;49.41
70170;DHT22;57543;45.442;9.212;2023-02-28T10:29:12;9.58;49.12
70170;DHT22;57543;45.442;9.212;2023-02-28T10:32:21;9.82;48.16
70170;DHT22;57543;45.442;9.212;2023-02-28T10:35:26;10.04;47.93
70170;DHT22;57543;45.442;9.212;2023-02-28T10:38:35;9.82;47.34
70170;DHT22;57543;45.442;9.212;2023-02-28T10:41:42;10.00;46.62
70170;DHT22;57543;45.442;9.212;2023-02-28T10:44:46;10.05;45.27
70170;DHT22;57543;45.442;9.212;2023-02-28T10:47:54;9.76;45.93
70170;DHT22;57543;45.442;9.212;2023-02-28T10:51:02;9.85;46.60
70170;DHT22;57543;45.442;9.212;2023-02-28T10:57:38;10.01;46.69
70170;DHT22;57543;45.442;9.212;2023-02-28T11:00:42;10.28;46.97
70170;DHT22;57543;45.442;9.212;2023-02-28T11:03:46;10.60;46.46
70170;DHT22;57543;45.442;9.212;2023-02-28T11:06:58;10.62;45.06
70170;DHT22;57543;45.442;9.212;2023-02-28T11:10:03;10.76;44.58
70170;DHT22;57543;45.442;9.212;2023-02-28T11:13:17;10.96;44.69
70170;DHT22;57543;45.442;9.212;2023-02-28T11:16:38;11.12;44.56
70170;DHT22;57543;45.442;9.212;2023-02-28T11:19:48;11.56;44.79
70170;DHT22;57543;45.442;9.212;2023-02-28T11:22:57;11.89;42.92
70170;DHT22;57543;45.442;9.212;2023-02-28T11:26:03;12.22;43.69
70170;DHT22;57543;45.442;9.212;2023-02-28T11:29:26;12.63;42.55
70170;DHT22;57543;45.442;9.212;2023-02-28T11:32:30;13.48;41.02
70170;DHT22;57543;45.442;9.212;2023-02-28T11:35:38;14.83;37.85
70170;DHT22;57543;45.442;9.212;2023-02-28T11:38:43;16.41;35.77
70170;DHT22;57543;45.442;9.212;2023-02-28T11:42:11;18.02;33.32
70170;DHT22;57543;45.442;9.212;2023-02-28T11:45:36;19.22;31.61
70170;DHT22;57543;45.442;9.212;2023-02-28T11:55:39;18.91;31.24
70170;DHT22;57543;45.442;9.212;2023-02-28T12:05:45;17.57;32.77
70170;DHT22;57543;45.442;9.212;2023-02-28T12:08:53;17.45;33.54
70170;DHT22;57543;45.442;9.212;2023-02-28T12:12:32;17.55;33.80
70170;DHT22;57543;45.442;9.212;2023-02-28T12:15:53;16.97;34.37
70170;DHT22;57543;45.442;9.212;2023-02-28T12:19:16;16.73;34.62
70170;DHT22;57543;45.442;9.212;2023-02-28T12:22:58;16.38;35.04
70170;DHT22;57543;45.442;9.212;2023-02-28T12:29:33;15.27;37.16
70170;DHT22;57543;45.442;9.212;2023-02-28T12:32:41;15.12;38.98
70170;DHT22;57543;45.442;9.212;2023-02-28T12:35:57;15.11;38.11
70170;DHT22;57543;45.442;9.212;2023-02-28T12:39:11;15.08;38.27
70170;DHT22;57543;45.442;9.212;2023-02-28T12:42:27;14.94;38.73
70170;DHT22;57543;45.442;9.212;2023-02-28T12:45:44;14.35;38.94
70170;DHT22;57543;45.442;9.212;2023-02-28T12:49:00;14.13;40.30
70170;DHT22;57543;45.442;9.212;2023-02-28T12:52:08;14.03;40.14
70170;DHT22;57543;45.442;9.212;2023-02-28T12:58:44;13.96;41.00
70170;DHT22;57543;45.442;9.212;2023-02-28T13:02:02;13.66;40.07
70170;DHT22;57543;45.442;9.212;2023-02-28T13:05:49;13.35;41.10
70170;DHT22;57543;45.442;9.212;2023-02-28T13:09:10;13.58;41.31
70170;DHT22;57543;45.442;9.212;2023-02-28T13:12:16;13.76;40.28
70170;DHT22;57543;45.442;9.212;2023-02-28T13:15:21;13.74;40.10
70170;DHT22;57543;45.442;9.212;2023-02-28T13:18:35;13.76;39.58
70170;DHT22;57543;45.442;9.212;2023-02-28T13:21:44;13.70;39.50
70170;DHT22;57543;45.442;9.212;2023-02-28T13:24:51;13.41;39.92
70170;DHT22;57543;45.442;9.212;2023-02-28T13:27:55;13.41;40.38
70170;DHT22;57543;45.442;9.212;2023-02-28T13:31:05;13.44;40.60
70170;DHT22;57543;45.442;9.212;2023-02-28T13:34:14;13.61;40.46
70170;DHT22;57543;45.442;9.212;2023-02-28T13:40:31;13.76;40.38
70170;DHT22;57543;45.442;9.212;2023-02-28T13:53:39;13.21;41.15
70170;DHT22;57543;45.442;9.212;2023-02-28T14:03:39;13.52;41.84
70170;DHT22;57543;45.442;9.212;2023-02-28T14:06:51;13.67;41.46
70170;DHT22;57543;45.442;9.212;2023-02-28T14:10:04;13.76;41.24
70170;DHT22;57543;45.442;9.212;2023-02-28T14:16:24;13.38;41.27
70170;DHT22;57543;45.442;9.212;2023-02-28T14:19:31;13.19;42.12
70170;DHT22;57543;45.442;9.212;2023-02-28T14:29:28;12.87;43.16
70170;DHT22;57543;45.442;9.212;2023-02-28T14:36:20;12.56;43.37
70170;DHT22;57543;45.442;9.212;2023-02-28T14:39:25;12.63;43.20
70170;DHT22;57543;45.442;9.212;2023-02-28T14:42:35;12.69;42.77
70170;DHT22;57543;45.442;9.212;2023-02-28T14:45:41;12.81;42.65
70170;DHT22;57543;45.442;9.212;2023-02-28T14:48:49;13.12;42.27
70170;DHT22;57543;45.442;9.212;2023-02-28T14:52:28;12.93;42.48
70170;DHT22;57543;45.442;9.212;2023-02-28T14:55:35;12.69;43.14
70170;DHT22;57543;45.442;9.212;2023-02-28T14:58:38;12.53;43.61
70170;DHT22;57543;45.442;9.212;2023-02-28T15:01:43;12.50;44.38
70170;DHT22;57543;45.442;9.212;2023-02-28T15:05:36;12.35;44.26
70170;DHT22;57543;45.442;9.212;2023-02-28T15:08:21;12.52;44.02
70170;DHT22;57543;45.442;9.212;2023-02-28T15:11:25;12.81;43.37
70170;DHT22;57543;45.442;9.212;2023-02-28T15:14:29;12.60;43.48
70170;DHT22;57543;45.442;9.212;2023-02-28T15:17:34;12.69;43.49
70170;DHT22;57543;45.442;9.212;2023-02-28T15:20:39;12.73;43.74
70170;DHT22;57543;45.442;9.212;2023-02-28T15:24:35;12.69;43.96
70170;DHT22;57543;45.442;9.212;2023-02-28T15:27:36;12.66;44.29
70170;DHT22;57543;45.442;9.212;2023-02-28T15:30:38;12.67;44.20
70170;DHT22;57543;45.442;9.212;2023-02-28T15:33:55;12.64;44.93
70170;DHT22;57543;45.442;9.212;2023-02-28T15:36:59;12.66;44.22
70170;DHT22;57543;45.442;9.212;2023-02-28T15:46:29;11.73;47.24
70170;DHT22;57543;45.442;9.212;2023-02-28T15:49:45;11.66;46.98
70170;DHT22;57543;45.442;9.212;2023-02-28T15:52:50;11.70;46.51
70170;DHT22;57543;45.442;9.212;2023-02-28T15:56:01;11.84;46.12
70170;DHT22;57543;45.442;9.212;2023-02-28T15:59:06;11.94;45.85
70170;DHT22;57543;45.442;9.212;2023-02-28T16:05:31;11.90;45.57
70170;DHT22;57543;45.442;9.212;2023-02-28T16:08:35;11.97;45.82
70170;DHT22;57543;45.442;9.212;2023-02-28T16:11:43;11.93;46.05
70170;DHT22;57543;45.442;9.212;2023-02-28T16:14:51;12.00;46.04
70170;DHT22;57543;45.442;9.212;2023-02-28T16:17:57;11.98;45.81
70170;DHT22;57543;45.442;9.212;2023-02-28T16:21:01;11.86;46.28
70170;DHT22;57543;45.442;9.212;2023-02-28T16:24:04;11.82;46.35
70170;DHT22;57543;45.442;9.212;2023-02-28T16:27:17;11.73;46.46
70170;DHT22;57543;45.442;9.212;2023-02-28T16:30:24;11.54;46.46
70170;DHT22;57543;45.442;9.212;2023-02-28T16:33:29;11.24;46.92
70170;DHT22;57543;45.442;9.212;2023-02-28T16:36:34;10.94;47.77
70170;DHT22;57543;45.442;9.212;2023-02-28T16:39:37;10.87;48.17
70170;DHT22;57543;45.442;9.212;2023-02-28T16:42:41;10.79;48.64
70170;DHT22;57543;45.442;9.212;2023-02-28T16:45:45;10.73;49.27
70170;DHT22;57543;45.442;9.212;2023-02-28T16:48:48;10.55;50.46
70170;DHT22;57543;45.442;9.212;2023-02-28T16:51:54;10.58;50.49
70170;DHT22;57543;45.442;9.212;2023-02-28T16:54:58;10.59;50.55
70170;DHT22;57543;45.442;9.212;2023-02-28T16:58:03;10.49;51.37
70170;DHT22;57543;45.442;9.212;2023-02-28T17:01:07;10.41;51.87
70170;DHT22;57543;45.442;9.212;2023-02-28T17:04:11;10.31;52.33
70170;DHT22;57543;45.442;9.212;2023-02-28T17:07:16;10.25;52.92
70170;DHT22;57543;45.442;9.212;2023-02-28T17:10:25;10.24;52.85
70170;DHT22;57543;45.442;9.212;2023-02-28T17:13:28;10.25;52.62
70170;DHT22;57543;45.442;9.212;2023-02-28T17:16:35;10.24;52.45
70170;DHT22;57543;45.442;9.212;2023-02-28T17:19:40;10.10;53.41
70170;DHT22;57543;45.442;9.212;2023-02-28T17:22:46;10.04;54.44
70170;DHT22;57543;45.442;9.212;2023-02-28T17:25:50;10.01;53.56
70170;DHT22;57543;45.442;9.212;2023-02-28T17:28:56;10.03;53.23
70170;DHT22;57543;45.442;9.212;2023-02-28T17:32:00;10.04;53.12
70170;DHT22;57543;45.442;9.212;2023-02-28T17:35:04;9.97;53.10
70170;DHT22;57543;45.442;9.212;2023-02-28T17:38:18;9.86;53.96
70170;DHT22;57543;45.442;9.212;2023-02-28T17:41:22;9.72;55.19
70170;DHT22;57543;45.442;9.212;2023-02-28T17:44:26;9.62;55.95
70170;DHT22;57543;45.442;9.212;2023-02-28T17:47:29;9.56;55.48
70170;DHT22;57543;45.442;9.212;2023-02-28T17:50:33;9.49;56.43
70170;DHT22;57543;45.442;9.212;2023-02-28T17:53:36;9.42;56.76
70170;DHT22;57543;45.442;9.212;2023-02-28T17:56:40;9.38;57.25
70170;DHT22;57543;45.442;9.212;2023-02-28T17:59:46;9.32;56.89
70170;DHT22;57543;45.442;9.212;2023-02-28T18:02:50;9.32;56.63
70170;DHT22;57543;45.442;9.212;2023-02-28T18:05:54;9.38;55.80
70170;DHT22;57543;45.442;9.212;2023-02-28T18:08:59;9.43;55.34
70170;DHT22;57543;45.442;9.212;2023-02-28T18:12:03;9.51;55.11
70170;DHT22;57543;45.442;9.212;2023-02-28T18:15:08;9.52;55.03
70170;DHT22;57543;45.442;9.212;2023-02-28T18:18:12;9.48;55.17
70170;DHT22;57543;45.442;9.212;2023-02-28T18:21:16;9.53;55.16
70170;DHT22;57543;45.442;9.212;2023-02-28T18:24:21;9.49;55.35
70170;DHT22;57543;45.442;9.212;2023-02-28T18:27:27;9.52;55.41
70170;DHT22;57543;45.442;9.212;2023-02-28T18:30:34;9.39;55.94
70170;DHT22;57543;45.442;9.212;2023-02-28T18:33:38;9.36;56.12
70170;DHT22;57543;45.442;9.212;2023-02-28T18:36:42;9.20;57.60
70170;DHT22;57543;45.442;9.212;2023-02-28T18:39:46;9.14;57.44
70170;DHT22;57543;45.442;9.212;2023-02-28T18:42:51;9.03;58.38
70170;DHT22;57543;45.442;9.212;2023-02-28T18:45:54;8.87;59.02
70170;DHT22;57543;45.442;9.212;2023-02-28T18:48:59;8.73;59.71
70170;DHT22;57543;45.442;9.212;2023-02-28T18:52:06;8.65;59.78
70170;DHT22;57543;45.442;9.212;2023-02-28T18:55:09;8.55;60.11
70170;DHT22;57543;45.442;9.212;2023-02-28T18:58:13;8.51;59.49
70170;DHT22;57543;45.442;9.212;2023-02-28T19:01:20;8.35;59.97
70170;DHT22;57543;45.442;9.212;2023-02-28T19:04:24;8.49;59.30
70170;DHT22;57543;45.442;9.212;2023-02-28T19:07:27;8.61;59.08
70170;DHT22;57543;45.442;9.212;2023-02-28T19:10:31;8.49;59.89
70170;DHT22;57543;45.442;9.212;2023-02-28T19:13:35;8.48;60.14
70170;DHT22;57543;45.442;9.212;2023-02-28T19:16:40;8.34;60.86
70170;DHT22;57543;45.442;9.212;2023-02-28T19:19:44;8.34;61.09
70170;DHT22;57543;45.442;9.212;2023-02-28T19:22:48;8.21;61.54
70170;DHT22;57543;45.442;9.212;2023-02-28T19:25:52;8.28;61.61
70170;DHT22;57543;45.442;9.212;2023-02-28T19:28:56;8.14;61.67
70170;DHT22;57543;45.442;9.212;2023-02-28T19:32:00;8.07;62.06
70170;DHT22;57543;45.442;9.212;2023-02-28T19:35:04;8.07;61.84
70170;DHT22;57543;45.442;9.212;2023-02-28T19:38:08;8.01;62.14
70170;DHT22;57543;45.442;9.212;2023-02-28T19:41:13;8.06;62.13
70170;DHT22;57543;45.442;9.212;2023-02-28T19:44:20;7.97;62.69
70170;DHT22;57543;45.442;9.212;2023-02-28T19:47:23;7.97;62.90
70170;DHT22;57543;45.442;9.212;2023-02-28T19:50:27;7.91;63.25
70170;DHT22;57543;45.442;9.212;2023-02-28T19:53:32;7.76;62.83
70170;DHT22;57543;45.442;9.212;2023-02-28T19:56:36;7.51;63.19
70170;DHT22;57543;45.442;9.212;2023-02-28T19:59:39;7.50;63.09
70170;DHT22;57543;45.442;9.212;2023-02-28T20:02:43;7.55;63.03
70170;DHT22;57543;45.442;9.212;2023-02-28T20:05:58;7.63;62.66
70170;DHT22;57543;45.442;9.212;2023-02-28T20:09:05;7.72;62.84
70170;DHT22;57543;45.442;9.212;2023-02-28T20:12:09;7.65;63.15
70170;DHT22;57543;45.442;9.212;2023-02-28T20:15:13;7.61;63.52
70170;DHT22;57543;45.442;9.212;2023-02-28T20:18:16;7.56;63.92
70170;DHT22;57543;45.442;9.212;2023-02-28T20:21:21;7.59;63.79
70170;DHT22;57543;45.442;9.212;2023-02-28T20:24:24;7.58;63.72
70170;DHT22;57543;45.442;9.212;2023-02-28T20:27:29;7.50;63.28
70170;DHT22;57543;45.442;9.212;2023-02-28T20:30:37;7.52;63.41
70170;DHT22;57543;45.442;9.212;2023-02-28T20:33:42;7.41;63.77
70170;DHT22;57543;45.442;9.212;2023-02-28T20:36:46;7.40;64.36
70170;DHT22;57543;45.442;9.212;2023-02-28T20:39:56;7.41;64.48
70170;DHT22;57543;45.442;9.212;2023-02-28T20:42:59;7.48;64.10
70170;DHT22;57543;45.442;9.212;2023-02-28T20:46:05;7.45;64.25
70170;DHT22;57543;45.442;9.212;2023-02-28T20:49:09;7.41;64.52
70170;DHT22;57543;45.442;9.212;2023-02-28T20:52:13;7.45;64.68
70170;DHT22;57543;45.442;9.212;2023-02-28T20:55:17;7.40;64.20
70170;DHT22;57543;45.442;9.212;2023-02-28T20:58:25;7.38;63.88
70170;DHT22;57543;45.442;9.212;2023-02-28T21:01:29;7.48;64.17
70170;DHT22;57543;45.442;9.212;2023-02-28T21:04:33;7.45;63.97
70170;DHT22;57543;45.442;9.212;2023-02-28T21:07:36;7.48;63.80
70170;DHT22;57543;45.442;9.212;2023-02-28T21:10:40;7.50;63.61
70170;DHT22;57543;45.442;9.212;2023-02-28T21:13:48;7.54;63.03
70170;DHT22;57543;45.442;9.212;2023-02-28T21:16:54;7.56;62.84
70170;DHT22;57543;45.442;9.212;2023-02-28T21:19:58;7.54;62.81
70170;DHT22;57543;45.442;9.212;2023-02-28T21:23:02;7.65;62.78
70170;DHT22;57543;45.442;9.212;2023-02-28T21:26:10;7.66;62.60
70170;DHT22;57543;45.442;9.212;2023-02-28T21:29:15;7.79;62.51